aviador You're here:

LJCE Decoded Metar

CERKLJE in SLOVENIA
Report Time2018-07-21 08:00:00
UTC Time2018-07-21 08:09:41
Flight Rules vfr VFR
WindVRB at 02 kt
Visibility9999 m
Phenomena:N/A
Clouds:N/A
Expected CloudBase > 1,600 ft AGL from Temp-Dew spread
CeilingNone
Temp22°C (ISA +8)
Dew Point18°C (78% RH)
QNH1012 hPa
Density Alt1,749 ft
Elevation508 ft
Report Wrong Elevation
Raw Report
METAR LJCE 210800Z VRB02KT CAVOK 22/18 Q1012 RMK BLU=

Extra information for LJCE:More info

Metar Taf Metar & Taf Last 4 Metars F.Rules Stats Wind Profile Meteogram Temp Stats Airport Information Weather charts Add Link Nearby VenuesMetar ALERT Operation Metar Decoded Social comments